createdAt,value
2019-05-18T00:00:11.882Z,14.27
2019-05-18T00:01:11.816Z,14.12
2019-05-18T00:02:11.827Z,14.13
2019-05-18T00:03:11.838Z,14.13
2019-05-18T00:04:11.841Z,14.07
2019-05-18T00:05:11.851Z,13.98
2019-05-18T00:06:11.863Z,13.99
2019-05-18T00:07:11.871Z,13.96
2019-05-18T00:08:11.874Z,13.99
2019-05-18T00:09:11.884Z,13.94
2019-05-18T00:10:11.891Z,13.83
2019-05-18T00:11:11.899Z,13.87
2019-05-18T00:12:11.908Z,13.87
2019-05-18T00:13:11.916Z,13.76
2019-05-18T00:14:11.929Z,13.79
2019-05-18T00:15:11.935Z,13.69
2019-05-18T00:16:11.937Z,13.73
2019-05-18T00:17:24.498Z,13.71
2019-05-18T00:18:11.960Z,13.69
2019-05-18T00:19:11.965Z,13.62
2019-05-18T00:20:11.981Z,13.61
2019-05-18T00:21:11.985Z,13.58
2019-05-18T00:22:11.995Z,13.49
2019-05-18T00:23:12.001Z,13.46
2019-05-18T00:24:12.010Z,13.46
2019-05-18T00:25:12.065Z,13.41
2019-05-18T00:26:12.029Z,13.40
2019-05-18T00:27:12.037Z,13.38
2019-05-18T00:28:12.048Z,13.37
2019-05-18T00:29:12.063Z,13.33
2019-05-18T00:30:12.062Z,13.27
2019-05-18T00:31:12.069Z,13.21
2019-05-18T00:32:12.093Z,13.27
2019-05-18T00:33:12.085Z,13.21
2019-05-18T00:34:12.094Z,13.22
2019-05-18T00:35:12.112Z,13.18
2019-05-18T00:36:12.109Z,13.30
2019-05-18T00:37:12.121Z,13.29
2019-05-18T00:38:12.132Z,13.41
2019-05-18T00:39:12.137Z,13.47
2019-05-18T00:40:12.145Z,13.55
2019-05-18T00:41:12.152Z,13.46
2019-05-18T00:42:12.161Z,13.44
2019-05-18T00:43:12.169Z,13.46
2019-05-18T00:44:12.179Z,13.43
2019-05-18T00:45:12.186Z,13.44
2019-05-18T00:46:12.195Z,13.41
2019-05-18T00:47:12.199Z,13.36
2019-05-18T00:48:12.215Z,13.37
2019-05-18T00:49:12.216Z,13.36
2019-05-18T00:50:12.234Z,13.33
2019-05-18T00:51:12.236Z,13.37
2019-05-18T00:52:12.245Z,13.40
2019-05-18T00:53:12.254Z,13.37
2019-05-18T00:54:12.262Z,13.38
2019-05-18T00:55:12.267Z,13.37
2019-05-18T00:56:12.296Z,13.38
2019-05-18T00:57:12.286Z,13.36
2019-05-18T00:58:12.296Z,13.36
2019-05-18T00:59:16.102Z,13.32
2019-05-18T01:00:12.311Z,13.32
2019-05-18T01:01:12.326Z,13.33
2019-05-18T01:02:12.326Z,13.38
2019-05-18T01:03:12.336Z,13.22
2019-05-18T01:04:12.343Z,13.25
2019-05-18T01:05:12.353Z,13.21
2019-05-18T01:06:12.361Z,13.27
2019-05-18T01:07:12.366Z,13.20
2019-05-18T01:08:12.377Z,13.09
2019-05-18T01:09:12.388Z,13.20
2019-05-18T01:10:12.395Z,13.14
2019-05-18T01:11:12.401Z,13.15
2019-05-18T01:12:12.409Z,13.07
2019-05-18T01:13:12.418Z,13.03
2019-05-18T01:14:12.422Z,12.96
2019-05-18T01:15:12.437Z,12.96
2019-05-18T01:16:12.445Z,12.89
2019-05-18T01:17:12.452Z,12.85
2019-05-18T01:18:12.459Z,12.89
2019-05-18T01:19:12.469Z,12.84
2019-05-18T01:20:12.477Z,12.88
2019-05-18T01:21:12.483Z,12.77
2019-05-18T01:22:12.492Z,12.71
2019-05-18T01:23:12.499Z,12.67
2019-05-18T01:24:12.509Z,12.75
2019-05-18T01:25:12.516Z,12.62
2019-05-18T01:26:12.525Z,12.64
2019-05-18T01:27:12.534Z,12.56
2019-05-18T01:28:12.544Z,12.60
2019-05-18T01:29:12.551Z,12.52
2019-05-18T01:30:12.551Z,12.44
2019-05-18T01:31:12.565Z,12.44
2019-05-18T01:32:12.578Z,12.44
2019-05-18T01:33:12.581Z,12.41
2019-05-18T01:34:12.590Z,12.37
2019-05-18T01:35:12.607Z,12.33
2019-05-18T01:36:12.609Z,12.33
2019-05-18T01:37:12.615Z,12.21
2019-05-18T01:38:12.621Z,12.21
2019-05-18T01:39:12.632Z,12.21
2019-05-18T01:40:12.641Z,12.12
2019-05-18T01:41:12.653Z,12.11
2019-05-18T01:42:12.654Z,12.09
2019-05-18T01:43:12.661Z,12.12
2019-05-18T01:44:12.667Z,12.09
2019-05-18T01:45:17.303Z,12.11
2019-05-18T01:46:12.687Z,12.12
2019-05-18T01:47:12.696Z,12.02
2019-05-18T01:48:14.559Z,12.08
2019-05-18T01:49:12.710Z,11.90
2019-05-18T01:50:12.720Z,11.90
2019-05-18T01:51:12.726Z,11.90
2019-05-18T01:52:12.738Z,11.83
2019-05-18T01:53:12.741Z,11.82
2019-05-18T01:54:12.757Z,11.82
2019-05-18T01:55:12.757Z,11.90
2019-05-18T01:56:12.766Z,11.97
2019-05-18T01:57:12.775Z,11.85
2019-05-18T01:58:12.778Z,11.85
2019-05-18T01:59:12.784Z,11.78
2019-05-18T02:00:12.797Z,11.83
2019-05-18T02:01:12.801Z,11.77
2019-05-18T02:02:12.815Z,11.78
2019-05-18T02:03:12.822Z,11.68
2019-05-18T02:04:12.830Z,11.68
2019-05-18T02:05:12.843Z,11.62
2019-05-18T02:06:12.842Z,11.71
2019-05-18T02:07:12.859Z,11.59
2019-05-18T02:08:12.864Z,11.53
2019-05-18T02:09:12.862Z,11.50
2019-05-18T02:10:12.870Z,11.53
2019-05-18T02:11:12.882Z,11.53
2019-05-18T02:12:12.889Z,11.50
2019-05-18T02:13:12.902Z,11.54
2019-05-18T02:14:12.903Z,11.54
2019-05-18T02:15:12.919Z,11.54
2019-05-18T02:16:12.922Z,11.53
2019-05-18T02:17:12.932Z,11.54
2019-05-18T02:18:26.871Z,11.56
2019-05-18T02:19:12.949Z,11.47
2019-05-18T02:20:12.955Z,11.47
2019-05-18T02:21:12.964Z,11.36
2019-05-18T02:22:12.969Z,11.47
2019-05-18T02:23:12.979Z,11.36
2019-05-18T02:24:13.011Z,11.43
2019-05-18T02:25:12.993Z,11.47
2019-05-18T02:26:13.004Z,11.38
2019-05-18T02:27:13.007Z,11.47
2019-05-18T02:28:13.017Z,11.44
2019-05-18T02:29:13.027Z,11.38
2019-05-18T02:30:17.231Z,11.35
2019-05-18T02:31:13.045Z,11.46
2019-05-18T02:32:13.052Z,11.47
2019-05-18T02:33:13.052Z,11.52
2019-05-18T02:34:13.065Z,11.46
2019-05-18T02:35:13.099Z,11.53
2019-05-18T02:36:13.085Z,11.47
2019-05-18T02:37:13.083Z,11.47
2019-05-18T02:38:13.097Z,11.47
2019-05-18T02:39:13.108Z,11.46
2019-05-18T02:40:13.113Z,11.43
2019-05-18T02:41:13.135Z,11.38
2019-05-18T02:42:13.127Z,11.35
2019-05-18T02:43:13.134Z,11.28
2019-05-18T02:44:13.143Z,11.24
2019-05-18T02:45:13.150Z,11.13
2019-05-18T02:46:13.157Z,11.14
2019-05-18T02:47:13.169Z,11.13
2019-05-18T02:48:13.170Z,11.09
2019-05-18T02:49:13.179Z,11.10
2019-05-18T02:50:13.201Z,11.09
2019-05-18T02:51:13.191Z,11.01
2019-05-18T02:52:13.200Z,11.03
2019-05-18T02:53:13.214Z,10.96
2019-05-18T02:54:13.219Z,10.94
2019-05-18T02:55:13.224Z,11.01
2019-05-18T02:56:13.240Z,11.02
2019-05-18T02:57:13.263Z,10.98
2019-05-18T02:58:13.250Z,10.96
2019-05-18T02:59:13.257Z,11.03
2019-05-18T03:00:13.265Z,10.86
2019-05-18T03:01:13.272Z,10.81
2019-05-18T03:02:13.277Z,10.81
2019-05-18T03:03:13.285Z,10.81
2019-05-18T03:04:13.296Z,10.77
2019-05-18T03:05:13.310Z,10.81
2019-05-18T03:06:13.308Z,10.77
2019-05-18T03:07:13.318Z,10.81
2019-05-18T03:08:13.329Z,10.77
2019-05-18T03:09:13.330Z,10.76
2019-05-18T03:10:13.340Z,10.76
2019-05-18T03:11:13.350Z,10.70
2019-05-18T03:12:13.356Z,10.80
2019-05-18T03:13:13.369Z,10.81
2019-05-18T03:14:13.377Z,10.78
2019-05-18T03:15:13.377Z,10.89
2019-05-18T03:16:13.388Z,10.81
2019-05-18T03:17:13.390Z,10.83
2019-05-18T03:18:13.404Z,10.81
2019-05-18T03:19:13.410Z,10.83
2019-05-18T03:20:13.418Z,10.77
2019-05-18T03:21:13.418Z,10.81
2019-05-18T03:22:13.432Z,10.80
2019-05-18T03:23:13.438Z,10.80
2019-05-18T03:24:13.452Z,10.77
2019-05-18T03:25:13.465Z,10.68
2019-05-18T03:26:13.464Z,10.73
2019-05-18T03:27:13.474Z,10.74
2019-05-18T03:28:13.476Z,10.70
2019-05-18T03:29:13.489Z,10.71
2019-05-18T03:30:13.496Z,10.74
2019-05-18T03:31:13.502Z,10.66
2019-05-18T03:32:13.508Z,10.76
2019-05-18T03:33:13.555Z,10.66
2019-05-18T03:34:13.526Z,10.76
2019-05-18T03:35:13.537Z,10.77
2019-05-18T03:36:13.538Z,10.73
2019-05-18T03:37:13.545Z,10.70
2019-05-18T03:38:13.551Z,10.71
2019-05-18T03:39:13.568Z,10.65
2019-05-18T03:40:13.567Z,10.66
2019-05-18T03:41:13.577Z,10.65
2019-05-18T03:42:13.584Z,10.63
2019-05-18T03:43:13.592Z,10.58
2019-05-18T03:44:13.599Z,10.60
2019-05-18T03:45:13.614Z,10.55
2019-05-18T03:46:13.613Z,10.58
2019-05-18T03:47:13.622Z,10.58
2019-05-18T03:48:13.631Z,10.53
2019-05-18T03:49:26.090Z,10.60
2019-05-18T03:50:13.661Z,10.60
2019-05-18T03:51:13.648Z,10.60
2019-05-18T03:52:13.657Z,10.62
2019-05-18T03:53:13.665Z,10.59
2019-05-18T03:54:13.670Z,10.63
2019-05-18T03:55:13.683Z,10.70
2019-05-18T03:56:13.692Z,10.70
2019-05-18T03:57:13.700Z,10.74
2019-05-18T03:58:13.703Z,10.65
2019-05-18T03:59:13.710Z,10.60
2019-05-18T04:00:13.716Z,10.59
2019-05-18T04:01:13.749Z,10.53
2019-05-18T04:02:13.732Z,10.53
2019-05-18T04:03:13.739Z,10.58
2019-05-18T04:04:13.747Z,10.53
2019-05-18T04:05:13.814Z,10.51
2019-05-18T04:06:13.762Z,10.47
2019-05-18T04:07:13.766Z,10.51
2019-05-18T04:08:13.783Z,10.53
2019-05-18T04:09:13.786Z,10.60
2019-05-18T04:10:13.789Z,10.51
2019-05-18T04:11:13.798Z,10.42
2019-05-18T04:12:13.816Z,10.47
2019-05-18T04:13:13.820Z,10.43
2019-05-18T04:14:13.828Z,10.39
2019-05-18T04:15:13.823Z,10.42
2019-05-18T04:16:13.837Z,10.47
2019-05-18T04:17:13.850Z,10.51
2019-05-18T04:18:13.854Z,10.51
2019-05-18T04:19:13.859Z,10.43
2019-05-18T04:20:13.863Z,10.42
2019-05-18T04:21:13.875Z,10.56
2019-05-18T04:22:13.909Z,10.53
2019-05-18T04:23:13.887Z,10.53
2019-05-18T04:24:13.896Z,10.52
2019-05-18T04:25:13.901Z,10.52
2019-05-18T04:26:13.910Z,10.52
2019-05-18T04:27:13.931Z,10.55
2019-05-18T04:28:13.926Z,10.58
2019-05-18T04:29:13.931Z,10.56
2019-05-18T04:30:13.938Z,10.60
2019-05-18T04:31:13.948Z,10.65
2019-05-18T04:32:13.959Z,10.60
2019-05-18T04:33:13.962Z,10.63
2019-05-18T04:34:13.971Z,10.59
2019-05-18T04:35:13.978Z,10.59
2019-05-18T04:36:13.990Z,10.60
2019-05-18T04:37:13.993Z,10.60
2019-05-18T04:38:13.999Z,10.46
2019-05-18T04:39:14.010Z,10.53
2019-05-18T04:40:14.014Z,10.42
2019-05-18T04:41:14.021Z,10.43
2019-05-18T04:42:14.030Z,10.44
2019-05-18T04:43:14.039Z,10.47
2019-05-18T04:44:14.046Z,10.42
2019-05-18T04:45:14.053Z,10.46
2019-05-18T04:46:14.057Z,10.46
2019-05-18T04:47:14.064Z,10.51
2019-05-18T04:48:14.076Z,10.51
2019-05-18T04:49:14.083Z,10.51
2019-05-18T04:50:14.090Z,10.52
2019-05-18T04:51:14.104Z,10.53
2019-05-18T04:52:14.100Z,10.60
2019-05-18T04:53:14.119Z,10.58
2019-05-18T04:54:14.120Z,10.59
2019-05-18T04:55:14.122Z,10.60
2019-05-18T04:56:14.135Z,10.62
2019-05-18T04:57:14.142Z,10.60
2019-05-18T04:58:14.147Z,10.66
2019-05-18T04:59:14.151Z,10.66
2019-05-18T05:00:14.173Z,10.76
2019-05-18T05:01:14.175Z,10.77
2019-05-18T05:02:14.179Z,10.78
2019-05-18T05:03:14.185Z,10.78
2019-05-18T05:04:14.193Z,10.86
2019-05-18T05:05:14.201Z,10.86
2019-05-18T05:06:14.223Z,10.88
2019-05-18T05:07:14.221Z,10.92
2019-05-18T05:08:14.226Z,10.96
2019-05-18T05:09:14.227Z,10.99
2019-05-18T05:10:14.241Z,10.98
2019-05-18T05:11:14.246Z,11.02
2019-05-18T05:12:14.253Z,11.09
2019-05-18T05:13:14.257Z,11.06
2019-05-18T05:14:14.263Z,11.10
2019-05-18T05:15:14.276Z,11.14
2019-05-18T05:16:14.280Z,11.24
2019-05-18T05:17:14.292Z,11.24
2019-05-18T05:18:14.297Z,11.32
2019-05-18T05:19:14.303Z,11.35
2019-05-18T05:20:19.571Z,11.39
2019-05-18T05:21:14.322Z,11.44
2019-05-18T05:22:14.327Z,11.52
2019-05-18T05:23:14.337Z,11.53
2019-05-18T05:24:14.343Z,11.54
2019-05-18T05:25:14.348Z,11.64
2019-05-18T05:26:14.357Z,11.71
2019-05-18T05:27:14.365Z,11.75
2019-05-18T05:28:14.372Z,11.68
2019-05-18T05:29:14.380Z,11.75
2019-05-18T05:30:14.393Z,11.72
2019-05-18T05:31:14.396Z,11.74
2019-05-18T05:32:14.407Z,11.70
2019-05-18T05:33:14.407Z,11.70
2019-05-18T05:34:14.419Z,11.70
2019-05-18T05:35:14.428Z,11.75
2019-05-18T05:36:14.430Z,11.74
2019-05-18T05:37:14.440Z,11.71
2019-05-18T05:38:14.445Z,11.71
2019-05-18T05:39:14.454Z,11.77
2019-05-18T05:40:14.482Z,11.82
2019-05-18T05:41:16.661Z,11.77
2019-05-18T05:42:14.483Z,11.86
2019-05-18T05:43:14.486Z,11.85
2019-05-18T05:44:14.491Z,11.85
2019-05-18T05:45:14.499Z,11.82
2019-05-18T05:46:14.506Z,11.86
2019-05-18T05:47:14.517Z,11.82
2019-05-18T05:48:14.525Z,11.87
2019-05-18T05:49:14.528Z,11.90
2019-05-18T05:50:14.537Z,12.04
2019-05-18T05:51:14.546Z,12.04
2019-05-18T05:52:14.555Z,12.01
2019-05-18T05:53:14.565Z,12.11
2019-05-18T05:54:14.569Z,12.11
2019-05-18T05:55:14.579Z,12.08
2019-05-18T05:56:14.587Z,12.11
2019-05-18T05:57:14.589Z,12.13
2019-05-18T05:58:14.600Z,12.20
2019-05-18T05:59:14.607Z,12.20
2019-05-18T06:00:14.616Z,12.20
2019-05-18T06:01:14.623Z,12.30
2019-05-18T06:02:14.628Z,12.39
2019-05-18T06:03:14.638Z,12.34
2019-05-18T06:04:14.647Z,12.30
2019-05-18T06:05:14.654Z,12.33
2019-05-18T06:06:14.662Z,12.37
2019-05-18T06:07:14.669Z,12.39
2019-05-18T06:08:14.673Z,12.41
2019-05-18T06:09:14.685Z,12.48
2019-05-18T06:10:14.693Z,12.52
2019-05-18T06:11:14.713Z,12.52
2019-05-18T06:12:14.711Z,12.57
2019-05-18T06:13:14.718Z,12.62
2019-05-18T06:14:14.718Z,12.62
2019-05-18T06:15:14.731Z,12.70
2019-05-18T06:16:14.740Z,12.75
2019-05-18T06:17:14.747Z,12.79
2019-05-18T06:18:14.764Z,12.85
2019-05-18T06:19:14.786Z,12.89
2019-05-18T06:20:14.769Z,12.74
2019-05-18T06:21:14.779Z,12.85
2019-05-18T06:22:14.791Z,12.84
2019-05-18T06:23:14.790Z,12.77
2019-05-18T06:24:14.801Z,12.84
2019-05-18T06:25:14.827Z,12.84
2019-05-18T06:26:14.823Z,12.92
2019-05-18T06:27:14.825Z,12.95
2019-05-18T06:28:14.832Z,12.95
2019-05-18T06:29:14.839Z,12.96
2019-05-18T06:30:14.848Z,13.00
2019-05-18T06:31:14.859Z,13.11
2019-05-18T06:32:14.860Z,13.21
2019-05-18T06:33:14.868Z,13.20
2019-05-18T06:34:14.880Z,13.18
2019-05-18T06:35:14.884Z,13.29
2019-05-18T06:36:14.896Z,13.29
2019-05-18T06:37:14.903Z,13.29
2019-05-18T06:38:14.910Z,13.37
2019-05-18T06:39:14.916Z,13.32
2019-05-18T06:40:14.927Z,13.46
2019-05-18T06:41:14.933Z,13.36
2019-05-18T06:42:14.964Z,13.44
2019-05-18T06:43:14.947Z,13.54
2019-05-18T06:44:14.958Z,13.52
2019-05-18T06:45:14.971Z,13.52
2019-05-18T06:46:14.971Z,13.59
2019-05-18T06:47:14.981Z,13.70
2019-05-18T06:48:14.990Z,13.71
2019-05-18T06:49:15.005Z,13.76
2019-05-18T06:50:15.009Z,13.73
2019-05-18T06:51:15.022Z,13.69
2019-05-18T06:52:15.019Z,13.80
2019-05-18T06:53:15.028Z,13.80
2019-05-18T06:54:15.036Z,13.77
2019-05-18T06:55:15.046Z,13.79
2019-05-18T06:56:15.058Z,13.98
2019-05-18T06:57:15.061Z,13.99
2019-05-18T06:58:15.070Z,14.01
2019-05-18T06:59:16.390Z,14.09
2019-05-18T07:00:15.087Z,14.09
2019-05-18T07:01:15.092Z,14.24
2019-05-18T07:02:15.101Z,14.28
2019-05-18T07:03:15.107Z,14.31
2019-05-18T07:04:15.118Z,14.29
2019-05-18T07:05:15.128Z,14.34
2019-05-18T07:06:15.131Z,14.42
2019-05-18T07:07:15.142Z,14.38
2019-05-18T07:08:15.156Z,14.47
2019-05-18T07:09:15.156Z,14.53
2019-05-18T07:10:15.195Z,14.57
2019-05-18T07:11:15.176Z,14.64
2019-05-18T07:12:15.186Z,14.71
2019-05-18T07:13:15.191Z,14.75
2019-05-18T07:14:25.250Z,14.95
2019-05-18T07:15:15.210Z,15.02
2019-05-18T07:16:15.215Z,14.99
2019-05-18T07:17:15.227Z,14.98
2019-05-18T07:18:15.239Z,15.11
2019-05-18T07:19:15.244Z,15.05
2019-05-18T07:20:15.252Z,15.03
2019-05-18T07:21:22.401Z,15.11
2019-05-18T07:22:15.266Z,15.11
2019-05-18T07:23:15.277Z,15.12
2019-05-18T07:24:15.303Z,15.17
2019-05-18T07:25:15.300Z,15.24
2019-05-18T07:26:15.305Z,15.23
2019-05-18T07:27:15.309Z,15.26
2019-05-18T07:28:15.322Z,15.27
2019-05-18T07:29:15.326Z,15.24
2019-05-18T07:30:15.339Z,15.26
2019-05-18T07:31:15.343Z,15.27
2019-05-18T07:32:15.355Z,15.27
2019-05-18T07:33:15.358Z,15.26
2019-05-18T07:34:15.368Z,15.24
2019-05-18T07:35:15.377Z,15.27
2019-05-18T07:36:15.390Z,15.28
2019-05-18T07:37:15.396Z,15.23
2019-05-18T07:38:15.403Z,15.20
2019-05-18T07:39:15.417Z,15.26
2019-05-18T07:40:15.423Z,15.23
2019-05-18T07:41:15.433Z,15.24
2019-05-18T07:42:15.440Z,15.30
2019-05-18T07:43:15.449Z,15.38
2019-05-18T07:44:15.461Z,15.38
2019-05-18T07:45:15.464Z,15.41
2019-05-18T07:46:15.473Z,15.33
2019-05-18T07:47:15.481Z,15.41
2019-05-18T07:48:15.486Z,15.38
2019-05-18T07:49:15.497Z,15.39
2019-05-18T07:50:15.507Z,15.39
2019-05-18T07:51:15.517Z,15.54
2019-05-18T07:52:17.276Z,15.49
2019-05-18T07:53:15.531Z,15.64
2019-05-18T07:54:15.541Z,15.61
2019-05-18T07:55:15.551Z,15.61
2019-05-18T07:56:15.560Z,15.56
2019-05-18T07:57:15.570Z,15.64
2019-05-18T07:58:15.589Z,15.59
2019-05-18T07:59:15.581Z,15.61
2019-05-18T08:00:15.590Z,15.70
2019-05-18T08:01:15.601Z,15.61
2019-05-18T08:02:15.610Z,15.66
2019-05-18T08:03:15.616Z,15.68
2019-05-18T08:04:15.629Z,15.68
2019-05-18T08:05:15.636Z,15.70
2019-05-18T08:06:15.641Z,15.66
2019-05-18T08:07:15.652Z,15.78
2019-05-18T08:08:15.661Z,15.78
2019-05-18T08:09:15.667Z,15.79
2019-05-18T08:10:15.681Z,15.93
2019-05-18T08:11:15.717Z,15.85
2019-05-18T08:12:15.694Z,15.86
2019-05-18T08:13:15.775Z,15.94
2019-05-18T08:14:15.715Z,15.97
2019-05-18T08:15:15.722Z,15.86
2019-05-18T08:16:15.734Z,15.93
2019-05-18T08:17:15.740Z,15.94
2019-05-18T08:18:15.748Z,15.94
2019-05-18T08:19:15.758Z,15.99
2019-05-18T08:20:15.766Z,15.86
2019-05-18T08:21:15.784Z,15.85
2019-05-18T08:22:15.785Z,15.94
2019-05-18T08:23:15.795Z,15.97
2019-05-18T08:24:15.803Z,16.00
2019-05-18T08:25:15.810Z,16.06
2019-05-18T08:26:15.831Z,16.01
2019-05-18T08:27:15.831Z,16.11
2019-05-18T08:28:15.845Z,16.12
2019-05-18T08:29:15.849Z,16.14
2019-05-18T08:30:15.863Z,16.23
2019-05-18T08:31:15.865Z,16.16
2019-05-18T08:32:15.872Z,16.22
2019-05-18T08:33:15.880Z,16.31
2019-05-18T08:34:15.893Z,16.40
2019-05-18T08:35:15.902Z,16.27
2019-05-18T08:36:15.911Z,16.35
2019-05-18T08:37:15.946Z,16.41
2019-05-18T08:38:15.928Z,16.45
2019-05-18T08:39:15.934Z,16.53
2019-05-18T08:40:15.944Z,16.52
2019-05-18T08:41:15.954Z,16.52
2019-05-18T08:42:15.965Z,16.42
2019-05-18T08:43:15.967Z,16.56
2019-05-18T08:44:15.982Z,16.62
2019-05-18T08:45:15.987Z,16.60
2019-05-18T08:46:15.998Z,16.70
2019-05-18T08:47:16.011Z,16.75
2019-05-18T08:48:16.015Z,16.86
2019-05-18T08:49:16.028Z,16.85
2019-05-18T08:50:16.035Z,16.95
2019-05-18T08:51:16.040Z,17.11
2019-05-18T08:52:16.055Z,17.13
2019-05-18T08:53:16.065Z,17.13
2019-05-18T08:54:16.070Z,17.23
2019-05-18T08:55:16.079Z,17.14
2019-05-18T08:56:16.097Z,17.22
2019-05-18T08:57:16.098Z,17.22
2019-05-18T08:58:16.107Z,17.23
2019-05-18T08:59:16.117Z,17.15
2019-05-18T09:00:16.125Z,17.17
2019-05-18T09:01:16.132Z,17.30
2019-05-18T09:02:17.684Z,17.35
2019-05-18T09:03:23.848Z,17.38
2019-05-18T09:05:20.641Z,17.53
2019-05-18T09:06:20.638Z,17.48
2019-05-18T09:08:25.238Z,17.73
2019-05-18T09:09:25.262Z,17.88
2019-05-18T09:11:29.629Z,17.88
2019-05-18T09:12:29.623Z,17.85
2019-05-18T09:14:34.108Z,18.00
2019-05-18T09:15:34.116Z,17.82
2019-05-18T09:17:38.619Z,17.88
2019-05-18T09:18:38.608Z,17.88
2019-05-18T09:20:43.080Z,18.10
2019-05-18T09:21:43.086Z,18.09
2019-05-18T09:23:36.510Z,18.33
2019-05-18T09:24:36.511Z,18.24
2019-05-18T09:26:41.016Z,18.28
2019-05-18T09:27:41.007Z,18.43
2019-05-18T09:29:45.520Z,18.50
2019-05-18T09:30:45.507Z,18.54
2019-05-18T09:32:50.011Z,18.80
2019-05-18T09:33:50.015Z,18.86
2019-05-18T09:35:55.541Z,19.01
2019-05-18T09:36:55.542Z,19.02
2019-05-18T09:39:00.075Z,19.25
2019-05-18T09:40:00.061Z,19.32
2019-05-18T09:42:04.575Z,19.38
2019-05-18T09:43:04.578Z,19.33
2019-05-18T09:45:09.114Z,19.39
2019-05-18T09:46:09.110Z,19.42
2019-05-18T09:48:13.609Z,19.43
2019-05-18T09:49:13.609Z,19.38
2019-05-18T09:51:18.122Z,19.40
2019-05-18T09:52:18.127Z,19.55
2019-05-18T09:54:11.589Z,19.57
2019-05-18T09:55:11.552Z,19.58
2019-05-18T09:57:16.055Z,19.63
2019-05-18T09:58:16.060Z,19.60
2019-05-18T10:00:20.546Z,19.53
2019-05-18T10:01:20.647Z,19.60
2019-05-18T10:03:25.081Z,19.69
2019-05-18T10:04:25.060Z,19.66
2019-05-18T10:05:25.120Z,19.58
2019-05-18T10:06:25.080Z,19.61
2019-05-18T10:07:25.154Z,19.54
2019-05-18T10:08:25.097Z,19.58
2019-05-18T10:09:25.401Z,19.60
2019-05-18T10:10:25.119Z,19.55
2019-05-18T10:11:25.144Z,19.54
2019-05-18T10:12:25.138Z,19.53
2019-05-18T10:13:25.178Z,19.58
2019-05-18T10:14:25.158Z,19.55
2019-05-18T10:15:25.175Z,19.61
2019-05-18T10:16:25.183Z,19.60
2019-05-18T10:17:25.198Z,19.58
2019-05-18T10:18:25.206Z,19.48
2019-05-18T10:19:25.227Z,19.48
2019-05-18T10:20:25.227Z,19.48
2019-05-18T10:21:25.243Z,19.63
2019-05-18T10:22:25.252Z,19.66
2019-05-18T10:23:25.262Z,19.72
2019-05-18T10:24:25.273Z,19.75
2019-05-18T10:25:25.282Z,19.72
2019-05-18T10:26:25.292Z,19.88
2019-05-18T10:27:25.299Z,19.94
2019-05-18T10:28:25.312Z,19.91
2019-05-18T10:29:25.327Z,19.90
2019-05-18T10:30:25.336Z,19.91
2019-05-18T10:31:25.345Z,19.97
2019-05-18T10:32:25.352Z,19.91
2019-05-18T10:33:25.362Z,20.05
2019-05-18T10:34:25.375Z,20.05
2019-05-18T10:35:25.389Z,20.12
2019-05-18T10:36:25.397Z,20.13
2019-05-18T10:37:25.410Z,20.06
2019-05-18T10:38:25.427Z,20.06
2019-05-18T10:39:25.431Z,20.10
2019-05-18T10:40:25.447Z,20.23
2019-05-18T10:41:25.448Z,20.25
2019-05-18T10:42:25.461Z,20.33
2019-05-18T10:43:25.479Z,20.39
2019-05-18T10:44:25.484Z,20.24
2019-05-18T10:45:25.502Z,20.28
2019-05-18T10:46:25.508Z,20.41
2019-05-18T10:47:25.519Z,20.28
2019-05-18T10:48:25.524Z,20.30
2019-05-18T10:49:25.538Z,20.21
2019-05-18T10:50:25.569Z,20.25
2019-05-18T10:51:25.556Z,20.30
2019-05-18T10:52:25.571Z,20.62
2019-05-18T10:53:28.847Z,20.43
2019-05-18T10:54:25.592Z,20.47
2019-05-18T10:55:25.607Z,20.49
2019-05-18T10:56:25.614Z,20.56
2019-05-18T10:57:25.625Z,20.65
2019-05-18T10:58:25.643Z,20.69
2019-05-18T10:59:25.651Z,20.79
2019-05-18T11:00:25.659Z,20.72
2019-05-18T11:01:25.673Z,20.74
2019-05-18T11:02:25.682Z,20.71
2019-05-18T11:03:25.694Z,20.76
2019-05-18T11:04:25.705Z,20.84
2019-05-18T11:05:25.717Z,20.71
2019-05-18T11:06:25.726Z,20.72
2019-05-18T11:07:28.849Z,20.72
2019-05-18T11:08:25.749Z,20.76
2019-05-18T11:09:25.765Z,20.66
2019-05-18T11:10:25.773Z,20.83
2019-05-18T11:11:25.789Z,20.81
2019-05-18T11:12:25.792Z,21.01
2019-05-18T11:13:25.805Z,21.21
2019-05-18T11:14:25.824Z,21.35
2019-05-18T11:15:25.827Z,21.56
2019-05-18T11:16:25.868Z,21.61
2019-05-18T11:17:25.849Z,21.88
2019-05-18T11:18:25.865Z,22.10
2019-05-18T11:19:25.870Z,22.29
2019-05-18T11:20:25.882Z,22.68
2019-05-18T11:21:25.898Z,22.89
2019-05-18T11:22:25.914Z,23.39
2019-05-18T11:23:25.926Z,23.68
2019-05-18T11:24:25.976Z,24.07
2019-05-18T11:25:25.953Z,24.57
2019-05-18T11:26:25.963Z,25.01
2019-05-18T11:27:25.980Z,25.47
2019-05-18T11:28:25.993Z,25.98
2019-05-18T11:29:26.016Z,26.46
2019-05-18T11:30:26.018Z,26.67
2019-05-18T11:31:26.033Z,27.09
2019-05-18T11:32:26.047Z,27.13
2019-05-18T11:33:26.063Z,27.10
2019-05-18T11:34:26.087Z,26.52
2019-05-18T11:35:26.094Z,26.04
2019-05-18T11:36:26.111Z,25.74
2019-05-18T11:37:26.123Z,25.91
2019-05-18T11:38:26.139Z,26.49
2019-05-18T11:39:26.150Z,27.06
2019-05-18T11:40:26.164Z,27.47
2019-05-18T11:41:26.179Z,27.82
2019-05-18T11:42:26.208Z,28.19
2019-05-18T11:43:26.223Z,28.72
2019-05-18T11:44:26.235Z,29.23
2019-05-18T11:45:26.274Z,29.57
2019-05-18T11:46:26.264Z,29.75
2019-05-18T11:47:26.285Z,30.07
2019-05-18T11:48:26.294Z,30.52
2019-05-18T11:49:29.088Z,30.83
2019-05-18T11:50:26.328Z,31.26
2019-05-18T11:51:26.349Z,30.90
2019-05-18T11:52:26.367Z,30.05
2019-05-18T11:53:26.380Z,30.46
2019-05-18T11:54:26.407Z,31.09
2019-05-18T11:55:26.420Z,31.62
2019-05-18T11:56:26.437Z,31.72
2019-05-18T11:57:26.455Z,32.02
2019-05-18T11:58:26.474Z,32.30
2019-05-18T11:59:26.492Z,32.73
2019-05-18T12:00:26.519Z,33.08
2019-05-18T12:01:26.529Z,33.22
2019-05-18T12:02:26.549Z,33.49
2019-05-18T12:03:26.570Z,33.58
2019-05-18T12:04:26.585Z,33.61
2019-05-18T12:05:26.607Z,33.90
2019-05-18T12:06:26.632Z,34.20
2019-05-18T12:07:26.645Z,32.84
2019-05-18T12:08:26.665Z,31.75
2019-05-18T12:09:26.706Z,30.81
2019-05-18T12:10:26.704Z,29.97
2019-05-18T12:11:26.723Z,29.22
2019-05-18T12:12:26.746Z,29.74
2019-05-18T12:13:26.762Z,30.53
2019-05-18T12:14:26.782Z,31.35
2019-05-18T12:15:26.797Z,31.99
2019-05-18T12:16:26.819Z,32.44
2019-05-18T12:17:26.838Z,32.96
2019-05-18T12:18:26.855Z,33.37
2019-05-18T12:19:26.874Z,33.89
2019-05-18T12:20:26.893Z,34.42
2019-05-18T12:21:26.911Z,34.77
2019-05-18T12:22:26.933Z,34.20
2019-05-18T12:23:26.955Z,33.85
2019-05-18T12:24:26.973Z,34.45
2019-05-18T12:25:27.014Z,34.53
2019-05-18T12:26:27.012Z,34.60
2019-05-18T12:27:27.033Z,34.61
2019-05-18T12:28:27.052Z,34.79
2019-05-18T12:29:27.075Z,34.70
2019-05-18T12:30:27.102Z,34.69
2019-05-18T12:31:27.111Z,34.63
2019-05-18T12:32:27.127Z,34.41
2019-05-18T12:33:27.166Z,34.54
2019-05-18T12:34:27.174Z,34.92
2019-05-18T12:35:27.193Z,34.96
2019-05-18T12:36:27.215Z,34.98
2019-05-18T12:37:27.235Z,35.10
2019-05-18T12:38:27.254Z,35.01
2019-05-18T12:39:27.279Z,34.83
2019-05-18T12:40:27.300Z,33.63
2019-05-18T12:41:27.320Z,33.58
2019-05-18T12:42:27.336Z,33.63
2019-05-18T12:43:27.411Z,33.60
2019-05-18T12:44:27.384Z,33.71
2019-05-18T12:45:27.402Z,33.89
2019-05-18T12:46:27.414Z,34.02
2019-05-18T12:47:27.436Z,34.11
2019-05-18T12:48:27.459Z,34.26
2019-05-18T12:49:27.481Z,34.20
2019-05-18T12:50:27.495Z,33.87
2019-05-18T12:51:27.513Z,33.64
2019-05-18T12:52:27.534Z,33.58
2019-05-18T12:53:27.560Z,33.57
2019-05-18T12:54:33.969Z,33.23
2019-05-18T12:55:27.594Z,33.10
2019-05-18T12:56:27.614Z,32.86
2019-05-18T12:57:27.639Z,32.77
2019-05-18T12:58:27.671Z,32.58
2019-05-18T12:59:27.675Z,32.15
2019-05-18T13:00:27.712Z,31.82
2019-05-18T13:01:27.708Z,32.07
2019-05-18T13:02:27.724Z,31.95
2019-05-18T13:03:27.747Z,31.95
2019-05-18T13:04:27.767Z,31.67
2019-05-18T13:05:27.790Z,31.20
2019-05-18T13:06:27.806Z,31.04
2019-05-18T13:07:27.826Z,30.87
2019-05-18T13:08:27.846Z,30.94
2019-05-18T13:09:27.859Z,30.94
2019-05-18T13:10:27.880Z,30.94
2019-05-18T13:11:27.897Z,30.96
2019-05-18T13:12:27.922Z,30.91
2019-05-18T13:13:27.934Z,30.94